• Join FlightAware (Why Join?)
  • Login
  • US Flag 
12:55PM EDT


 

Airport Tracker/Info


-or-


 

Live Flight TrackerFlight Track Log ✈ GJS3710 ✈ 26-Apr-2013 ✈ KORD - KALB

Flight Track Log - Related Links

Times and Time Zones

All times are in EDT time to prevent confusion due to time zone crossing. See the GJS3710 flight status page for this flight to view local times or setup timezone preferences in your user account.

Time Position Orientation Groundspeed Altitude Reporting Facility
EDT Latitude Longitude Course Direction KTS MPH feet Rate Location/Type
08:58PM 41.9500 -87.9000 90° East 154 177 1,700  Level Chicago TRACON
08:59PM 41.9333 -87.8333 109° East 222 255 3,100 1,680 Climbing Chicago TRACON
09:00PM 41.9500 -87.7333 77° East 268 308 4,900 1,500 Climbing Chicago TRACON
09:01PM 41.9500 -87.6333 90° East 277 319 6,300 1,800 Climbing Chicago TRACON
09:02PM 42.1724 -87.3329 66° East  Level FlightAware Approximate
09:02PM 41.9667 -87.5167 79° East 298 343 8,800  Level Chicago TRACON
09:03PM 42.2214 -87.1859 66° East  Level FlightAware Approximate
09:04PM 42.2667 -87.0377 90° East  Level FlightAware Approximate
09:05PM 42.0872 -87.3028 53° Northeast 306 352 15,100  Level Chicago Center
09:06PM 42.0986 -87.1689 83° East 354 407 16,300 1,320 Climbing Chicago Center
09:07PM 42.1100 -87.0247 84° East 383 441 17,900 1,380 Climbing Chicago Center
09:08PM 42.1228 -86.8742 83° East 404 465 19,200 1,500 Climbing Chicago Center
09:09PM 42.1344 -86.7189 84° East 415 478 21,000 1,800 Climbing Chicago Center
09:10PM 42.1475 -86.5381 84° East 420 483 23,000 1,560 Climbing Chicago Center
09:11PM 42.1600 -86.3772 84° East 429 494 24,300 1,140 Climbing Chicago Center
09:12PM 42.1722 -86.2108 84° East 443 510 25,400 1,020 Climbing Chicago Center
09:13PM 42.1844 -86.0406 84° East 453 521 26,500 1,080 Climbing Chicago Center
09:14PM 42.1978 -85.8472 85° East 462 532 27,700 960 Climbing Chicago Center
09:15PM 42.2092 -85.6703 85° East 471 542 28,500 720 Climbing Chicago Center
09:16PM 42.2214 -85.4889 85° East 484 557 29,300 780 Climbing Chicago Center
09:17PM 42.2356 -85.3028 84° East 498 573 30,100 840 Climbing Chicago Center
09:18PM 42.2528 -85.0947 84° East 495 570 31,200 960 Climbing Cleveland Center
09:19PM 42.2622 -84.9044 86° East 495 570 32,200 900 Climbing Cleveland Center
09:20PM 42.2714 -84.7142 86° East 495 570 33,000 360 Climbing Cleveland Center
09:21PM 42.2800 -84.5267 86° East 495 570 33,000  Level Cleveland Center
09:22PM 42.3031 -84.3314 81° East 507 583 33,000  Level Cleveland Center
09:23PM 42.3300 -84.1419 79° East 512 589 33,000  Level Cleveland Center
09:24PM 42.3589 -83.9469 79° East 519 597 33,000  Level Cleveland Center
09:25PM 42.3872 -83.7514 79° East 519 597 33,000  Level Cleveland Center
09:26PM 42.4100 -83.5247 82° East 531 611 33,000  Level Cleveland Center
09:27PM 42.4169 -83.3253 87° East 534 615 33,000  Level Cleveland Center
09:28PM 42.4239 -83.1203 87° East 534 615 33,000  Level Cleveland Center
09:29PM 42.4303 -82.9153 88° East 534 615 33,000  Level Cleveland Center
09:30PM 42.4364 -82.7128 88° East 534 615 33,000  Level Cleveland Center
09:31PM 42.4419 -82.5106 88° East 534 615 33,000  Level Cleveland Center
09:32PM 42.4472 -82.3164 88° East 529 609 33,000  Level Cleveland Center
09:33PM 42.4539 -82.1336 87° East 529 609 33,000  Level Cleveland Center
09:34PM 42.4567 -81.9172 89° East 534 615 33,000  Level Cleveland Center
09:35PM 42.4631 -81.7144 87° East 534 615 33,000  Level Cleveland Center
09:36PM 42.4689 -81.5206 88° East 534 615 33,000  Level Cleveland Center
09:37PM 42.4725 -81.3236 89° East 528 608 33,000  Level Cleveland Center
09:38PM 42.4756 -81.1264 89° East 533 613 33,000  Level Cleveland Center
09:39PM 42.4783 -80.9294 89° East 527 606 33,000  Level Cleveland Center
09:40PM 42.4808 -80.7294 89° East 521 600 33,000  Level Cleveland Center
09:41PM 42.4831 -80.5325 89° East 515 593 33,000  Level Cleveland Center
09:42PM 42.4850 -80.3581 89° East 515 593 33,000  Level Cleveland Center
09:43PM 42.4867 -80.1608 89° East 515 593 33,000  Level Cleveland Center
09:44PM 42.4919 -79.9694 88° East 515 593 33,000  Level Cleveland Center
09:45PM 42.4908 -79.7694 90° East 515 593 33,000  Level Cleveland Center
09:46PM 42.4892 -79.5753 91° East 515 593 33,000  Level Cleveland Center
09:47PM 42.4914 -79.3781 89° East 523 602 33,000  Level Cleveland Center
09:48PM 42.4997 -79.1836 87° East 525 604 33,000  Level Cleveland Center
09:49PM 42.5139 -78.9833 84° East 519 597 33,000  Level Cleveland Center
09:50PM 42.5256 -78.7858 85° East 524 603 33,000  Level Cleveland Center
09:51PM 42.5389 -78.5881 85° East 524 603 33,000 -120 Level Cleveland Center
09:52PM 42.5519 -78.3903 85° East 524 603 32,800 -600 Descending Cleveland Center
09:53PM 42.5647 -78.1981 85° East 517 595 31,800 -1,020 Descending Cleveland Center
09:54PM 42.5753 -78.0117 86° East 511 588 30,800 -1,140 Descending Cleveland Center
09:55PM 42.5853 -77.8111 86° East 492 566 29,600 -660 Descending Cleveland Center
09:57PM 42.6056 -77.4792 85° East 487 560 29,000 -240 Descending Boston Center
09:58PM 42.6153 -77.2994 86° East 477 549 29,000  Level Boston Center
09:59PM 42.6250 -77.1167 86° East 477 549 29,000  Level Boston Center
10:00PM 42.6344 -76.9367 86° East 477 549 29,000  Level Boston Center
10:01PM 42.6436 -76.7536 86° East 477 549 29,000  Level Boston Center
10:02PM 42.6506 -76.5706 87° East 477 549 29,000  Level Boston Center
10:03PM 42.6592 -76.3847 86° East 477 549 29,100 -60 Climbing Boston Center
10:04PM 42.6694 -76.2047 85° East 477 549 28,900 -540 Descending Boston Center
10:05PM 42.6775 -76.0214 87° East 477 549 28,100 -1,440 Descending Boston Center
10:06PM 42.6850 -75.8411 87° East 477 549 26,100 -2,100 Descending Boston Center
10:07PM 42.6925 -75.6578 87° East 477 549 23,900 -2,220 Descending Boston Center
10:08PM 42.6994 -75.4800 87° East 471 542 21,700 -2,220 Descending Boston Center
10:09PM 42.7039 -75.3108 88° East 459 528 19,500 -1,980 Descending Boston Center
10:10PM 42.7100 -75.1444 87° East 454 522 17,800 -1,980 Descending Boston Center
10:11PM 42.7158 -74.9833 87° East 432 497 15,600 -2,340 Descending Boston Center
10:12PM 42.7208 -74.8508 87° East 395 455 13,600 -1,680 Descending Boston Center
10:13PM 42.7247 -74.6558 88° East 394 453 12,100 -1,080 Descending Boston Center
10:14PM 42.7292 -74.5344 87° East 388 447 11,300 -960 Descending Boston Center
10:15PM 42.7169 -74.3956 97° East 350 403 10,400 -1,200 Descending Boston Center
10:16PM 42.6917 -74.3017 110° East 308 354 9,000 -1,620 Descending Boston Center
10:17PM 42.6619 -74.1906 110° East 285 328 7,200 -1,680 Descending Boston Center
10:18PM 42.6383 -74.1053 111° Southeast 271 312 5,700 -1,440 Descending Boston Center
10:19PM 42.6125 -74.0058 109° East 251 289 4,400 -1,320 Descending Boston Center
10:20PM 42.6181 -73.9128 85° East 250 288 3,100 -1,140 Descending Boston Center
10:21PM 42.6356 -73.8342 73° East 203 234 2,200 -720 Descending Boston Center
10:22PM 42.6672 -73.8039 35° Northeast 137 158 1,700 -600 Descending Boston Center
10:23PM 42.7028 -73.8075 356° North 116 133 1,100 -600 Descending Boston Center